createdAt,value
2019-03-15T00:01:21.943Z,5.78
2019-03-15T00:04:23.859Z,5.81
2019-03-15T00:07:25.781Z,5.84
2019-03-15T00:10:27.740Z,5.90
2019-03-15T00:13:29.644Z,5.91
2019-03-15T00:16:31.586Z,5.92
2019-03-15T00:19:33.428Z,5.90
2019-03-15T00:22:35.913Z,5.92
2019-03-15T00:25:37.788Z,5.95
2019-03-15T00:28:39.695Z,5.96
2019-03-15T00:31:41.616Z,5.97
2019-03-15T00:34:43.583Z,5.99
2019-03-15T00:37:46.083Z,6.01
2019-03-15T00:40:48.142Z,6.05
2019-03-15T00:43:50.140Z,6.01
2019-03-15T00:46:52.049Z,5.99
2019-03-15T00:49:54.853Z,6.01
2019-03-15T00:52:56.800Z,6.00
2019-03-15T00:55:58.838Z,6.00
2019-03-15T00:59:00.756Z,6.01
2019-03-15T01:02:02.663Z,5.98
2019-03-15T01:05:05.324Z,5.99
2019-03-15T01:08:07.280Z,6.03
2019-03-15T01:11:09.322Z,6.02
2019-03-15T01:14:11.226Z,6.06
2019-03-15T01:17:13.200Z,6.02
2019-03-15T01:20:15.119Z,6.06
2019-03-15T01:23:17.143Z,6.07
2019-03-15T01:26:19.195Z,6.03
2019-03-15T01:29:21.279Z,6.04
2019-03-15T01:32:23.239Z,6.07
2019-03-15T01:35:25.117Z,6.10
2019-03-15T01:38:27.029Z,6.06
2019-03-15T01:41:29.064Z,6.07
2019-03-15T01:44:30.981Z,6.11
2019-03-15T01:47:32.924Z,6.11
2019-03-15T01:50:36.529Z,6.16
2019-03-15T01:53:38.416Z,6.19
2019-03-15T01:56:40.351Z,6.13
2019-03-15T01:59:42.556Z,6.20
2019-03-15T02:02:44.474Z,6.23
2019-03-15T02:05:46.409Z,6.24
2019-03-15T02:08:48.428Z,6.28
2019-03-15T02:11:51.465Z,6.28
2019-03-15T02:14:53.555Z,6.33
2019-03-15T02:17:55.515Z,6.37
2019-03-15T02:20:57.431Z,6.41
2019-03-15T02:23:59.390Z,6.40
2019-03-15T02:27:01.316Z,6.44
2019-03-15T02:30:06.269Z,6.50
2019-03-15T02:33:08.279Z,6.51
2019-03-15T02:36:10.247Z,6.52
2019-03-15T02:39:12.166Z,6.55
2019-03-15T02:42:14.321Z,6.53
2019-03-15T02:45:16.440Z,6.55
2019-03-15T02:48:18.314Z,6.55
2019-03-15T02:51:20.319Z,6.53
2019-03-15T02:54:22.280Z,6.52
2019-03-15T02:57:24.300Z,6.53
2019-03-15T03:00:26.260Z,6.54
2019-03-15T03:03:28.170Z,6.58
2019-03-15T03:06:30.119Z,6.63
2019-03-15T03:09:32.246Z,6.66
2019-03-15T03:12:34.232Z,6.63
2019-03-15T03:15:36.220Z,6.65
2019-03-15T03:18:38.117Z,6.64
2019-03-15T03:21:40.083Z,6.66
2019-03-15T03:24:41.940Z,6.63
2019-03-15T03:27:43.874Z,6.67
2019-03-15T03:30:46.899Z,6.61
2019-03-15T03:33:49.168Z,6.65
2019-03-15T03:36:52.296Z,6.62
2019-03-15T03:39:54.664Z,6.65
2019-03-15T03:42:56.786Z,6.67
2019-03-15T03:45:58.698Z,6.70
2019-03-15T03:49:01.826Z,6.70
2019-03-15T03:52:04.124Z,6.70
2019-03-15T03:55:06.190Z,6.68
2019-03-15T03:58:08.099Z,6.67
2019-03-15T04:01:10.071Z,6.62
2019-03-15T04:04:12.133Z,6.57
2019-03-15T04:07:14.139Z,6.49
2019-03-15T04:10:16.027Z,6.36
2019-03-15T04:13:18.086Z,6.29
2019-03-15T04:16:21.310Z,6.27
2019-03-15T04:19:23.223Z,6.29
2019-03-15T04:22:25.110Z,6.36
2019-03-15T04:25:27.190Z,6.38
2019-03-15T04:28:29.160Z,6.39
2019-03-15T04:31:31.186Z,6.30
2019-03-15T04:34:33.105Z,6.25
2019-03-15T04:37:35.098Z,6.24
2019-03-15T04:40:38.223Z,6.23
2019-03-15T04:43:40.257Z,6.18
2019-03-15T04:46:42.187Z,6.16
2019-03-15T04:49:45.493Z,6.12
2019-03-15T04:52:47.387Z,6.13
2019-03-15T04:55:49.509Z,6.18
2019-03-15T04:58:51.407Z,6.20
2019-03-15T05:01:53.357Z,6.24
2019-03-15T05:04:55.286Z,6.26
2019-03-15T05:07:57.238Z,6.27
2019-03-15T05:10:59.635Z,6.33
2019-03-15T05:14:01.780Z,6.30
2019-03-15T05:17:03.664Z,6.27
2019-03-15T05:20:07.835Z,6.26
2019-03-15T05:23:09.778Z,6.28
2019-03-15T05:26:11.663Z,6.33
2019-03-15T05:29:13.667Z,6.29
2019-03-15T05:32:16.465Z,6.29
2019-03-15T05:35:18.400Z,6.29
2019-03-15T05:38:20.334Z,6.27
2019-03-15T05:41:22.339Z,6.36
2019-03-15T05:44:24.403Z,6.37
2019-03-15T05:47:27.516Z,6.35
2019-03-15T05:50:29.435Z,6.41
2019-03-15T05:53:31.384Z,6.54
2019-03-15T05:56:33.294Z,6.58
2019-03-15T05:59:35.248Z,6.59
2019-03-15T06:02:37.158Z,6.65
2019-03-15T06:05:39.122Z,6.69
2019-03-15T06:08:41.115Z,6.72
2019-03-15T06:11:43.063Z,6.79
2019-03-15T06:14:46.879Z,6.86
2019-03-15T06:17:49.086Z,6.88
2019-03-15T06:20:50.984Z,7.05
2019-03-15T06:23:53.007Z,7.26
2019-03-15T06:26:55.047Z,8.29
2019-03-15T06:29:56.988Z,8.41
2019-03-15T06:32:59.064Z,8.03
2019-03-15T06:36:01.018Z,7.80
2019-03-15T06:39:05.153Z,7.65
2019-03-15T06:42:06.986Z,7.61
2019-03-15T06:45:10.798Z,7.68
2019-03-15T06:48:12.868Z,7.68
2019-03-15T06:51:14.824Z,7.69
2019-03-15T06:54:16.954Z,7.77
2019-03-15T06:57:18.860Z,7.74
2019-03-15T07:00:20.775Z,7.68
2019-03-15T07:03:23.711Z,7.53
2019-03-15T07:06:25.641Z,7.56
2019-03-15T07:09:30.777Z,7.55
2019-03-15T07:12:31.429Z,7.61
2019-03-15T07:15:33.587Z,7.70
2019-03-15T07:18:35.781Z,7.71
2019-03-15T07:21:37.815Z,7.63
2019-03-15T07:24:43.618Z,7.65
2019-03-15T07:27:45.038Z,7.68
2019-03-15T07:30:46.930Z,7.85
2019-03-15T07:33:49.627Z,8.00
2019-03-15T07:36:55.180Z,8.00
2019-03-15T07:39:55.592Z,7.97
2019-03-15T07:43:02.053Z,7.99
2019-03-15T07:46:02.046Z,8.02
2019-03-15T07:49:04.073Z,8.00
2019-03-15T07:52:05.987Z,8.06
2019-03-15T07:55:08.392Z,8.11
2019-03-15T07:58:10.314Z,8.11
2019-03-15T08:01:12.573Z,8.10
2019-03-15T08:04:17.716Z,8.15
2019-03-15T08:07:20.187Z,8.13
2019-03-15T08:10:22.235Z,8.20
2019-03-15T08:13:24.183Z,8.20
2019-03-15T08:16:26.202Z,8.32
2019-03-15T08:19:28.196Z,8.46
2019-03-15T08:22:30.129Z,8.67
2019-03-15T08:25:32.030Z,8.77
2019-03-15T08:28:33.986Z,8.89
2019-03-15T08:31:35.889Z,9.03
2019-03-15T08:34:37.830Z,9.17
2019-03-15T08:37:39.797Z,9.10
2019-03-15T08:40:41.744Z,8.97
2019-03-15T08:43:46.044Z,9.07
2019-03-15T08:46:47.744Z,9.21
2019-03-15T08:49:49.680Z,9.34
2019-03-15T08:52:54.098Z,9.25
2019-03-15T08:55:56.050Z,9.28
2019-03-15T08:58:58.007Z,9.28
2019-03-15T09:01:59.991Z,9.49
2019-03-15T09:05:02.072Z,9.83
2019-03-15T09:08:04.192Z,10.07
2019-03-15T09:11:06.135Z,10.12
2019-03-15T09:14:08.116Z,10.13
2019-03-15T09:17:10.118Z,10.29
2019-03-15T09:20:15.133Z,10.31
2019-03-15T09:23:17.038Z,10.50
2019-03-15T09:26:19.917Z,10.68
2019-03-15T09:29:21.876Z,10.75
2019-03-15T09:32:24.208Z,10.85
2019-03-15T09:35:26.146Z,10.87
2019-03-15T09:38:28.659Z,11.10
2019-03-15T09:41:39.095Z,11.10
2019-03-15T09:44:37.541Z,11.16
2019-03-15T09:47:40.363Z,11.13
2019-03-15T09:50:51.264Z,10.79
2019-03-15T09:53:46.313Z,10.74
2019-03-15T09:56:48.598Z,10.95
2019-03-15T09:59:51.391Z,10.80
2019-03-15T10:02:56.064Z,10.76
2019-03-15T10:05:57.243Z,10.81
2019-03-15T10:08:59.407Z,10.84
2019-03-15T10:12:02.118Z,10.83
2019-03-15T10:15:07.983Z,11.11
2019-03-15T10:18:09.395Z,10.96
2019-03-15T10:21:11.388Z,10.90
2019-03-15T10:24:15.750Z,10.82
2019-03-15T10:27:17.144Z,10.82
2019-03-15T10:30:20.211Z,10.96
2019-03-15T10:33:22.085Z,11.18
2019-03-15T10:36:24.061Z,11.62
2019-03-15T10:39:26.049Z,11.85
2019-03-15T10:42:27.949Z,11.97
2019-03-15T10:45:30.085Z,12.22
2019-03-15T10:48:32.216Z,12.35
2019-03-15T10:51:34.184Z,12.17
2019-03-15T10:54:36.052Z,11.87
2019-03-15T10:57:38.024Z,11.95
2019-03-15T11:00:39.957Z,12.09
2019-03-15T11:03:41.884Z,12.23
2019-03-15T11:06:43.892Z,12.23
2019-03-15T11:09:45.814Z,12.20
2019-03-15T11:12:47.881Z,12.20
2019-03-15T11:15:50.169Z,12.19
2019-03-15T11:18:52.197Z,12.28
2019-03-15T11:21:55.325Z,12.27
2019-03-15T11:24:57.312Z,12.15
2019-03-15T11:27:59.239Z,12.00
2019-03-15T11:31:01.206Z,12.00
2019-03-15T11:34:03.356Z,11.99
2019-03-15T11:37:05.278Z,12.04
2019-03-15T11:40:17.606Z,12.09
2019-03-15T11:43:19.371Z,12.26
2019-03-15T11:46:21.430Z,12.34
2019-03-15T11:49:23.451Z,12.38
2019-03-15T11:52:25.487Z,12.49
2019-03-15T11:55:27.509Z,12.42
2019-03-15T11:58:30.313Z,12.18
2019-03-15T12:01:32.544Z,12.21
2019-03-15T12:04:34.517Z,12.25
2019-03-15T12:07:36.477Z,12.26
2019-03-15T12:10:38.408Z,12.26
2019-03-15T12:13:40.461Z,12.25
2019-03-15T12:16:42.439Z,12.37
2019-03-15T12:19:44.455Z,12.46
2019-03-15T12:22:46.412Z,12.43
2019-03-15T12:25:48.369Z,12.31
2019-03-15T12:28:50.444Z,12.32
2019-03-15T12:31:52.472Z,12.29
2019-03-15T12:34:54.412Z,12.41
2019-03-15T12:37:56.434Z,12.53
2019-03-15T12:40:58.370Z,12.45
2019-03-15T12:44:00.335Z,12.27
2019-03-15T12:47:02.197Z,12.20
2019-03-15T12:50:06.884Z,12.30
2019-03-15T12:53:09.824Z,12.42
2019-03-15T12:56:11.772Z,12.41
2019-03-15T12:59:13.763Z,12.18
2019-03-15T13:02:15.739Z,12.13
2019-03-15T13:05:17.654Z,11.96
2019-03-15T13:08:19.658Z,11.97
2019-03-15T13:11:21.955Z,11.98
2019-03-15T13:14:23.937Z,12.03
2019-03-15T13:17:25.863Z,12.17
2019-03-15T13:20:27.842Z,12.35
2019-03-15T13:23:29.782Z,12.51
2019-03-15T13:26:31.966Z,12.59
2019-03-15T13:29:33.912Z,12.64
2019-03-15T13:32:35.935Z,12.46
2019-03-15T13:35:37.868Z,12.43
2019-03-15T13:38:39.927Z,12.47
2019-03-15T13:41:42.007Z,12.52
2019-03-15T13:44:44.151Z,12.45
2019-03-15T13:47:46.107Z,12.34
2019-03-15T13:50:49.835Z,12.29
2019-03-15T13:53:51.838Z,12.26
2019-03-15T13:56:53.877Z,12.40
2019-03-15T13:59:55.879Z,12.34
2019-03-15T14:02:57.881Z,12.34
2019-03-15T14:05:59.794Z,12.24
2019-03-15T14:09:01.787Z,12.26
2019-03-15T14:12:04.575Z,12.24
2019-03-15T14:15:10.096Z,12.22
2019-03-15T14:18:12.083Z,12.13
2019-03-15T14:21:14.085Z,12.20
2019-03-15T14:24:16.082Z,12.22
2019-03-15T14:27:18.140Z,12.35
2019-03-15T14:30:20.075Z,12.39
2019-03-15T14:33:22.119Z,12.43
2019-03-15T14:36:24.152Z,12.48
2019-03-15T14:39:26.546Z,12.53
2019-03-15T14:42:28.583Z,12.53
2019-03-15T14:45:30.910Z,12.53
2019-03-15T14:48:32.929Z,12.48
2019-03-15T14:51:35.208Z,12.35
2019-03-15T14:54:37.324Z,12.35
2019-03-15T14:57:51.337Z,12.38
2019-03-15T15:00:43.419Z,12.28
2019-03-15T15:03:45.441Z,12.12
2019-03-15T15:06:47.595Z,11.93
2019-03-15T15:09:49.678Z,11.78
2019-03-15T15:12:51.876Z,11.67
2019-03-15T15:15:53.862Z,11.46
2019-03-15T15:18:56.031Z,11.41
2019-03-15T15:21:58.170Z,11.39
2019-03-15T15:25:00.195Z,11.30
2019-03-15T15:28:04.751Z,11.24
2019-03-15T15:31:06.086Z,11.05
2019-03-15T15:34:07.977Z,11.00
2019-03-15T15:37:10.717Z,11.05
2019-03-15T15:40:15.358Z,10.95
2019-03-15T15:43:17.488Z,10.90
2019-03-15T15:46:19.599Z,10.81
2019-03-15T15:49:21.758Z,10.80
2019-03-15T15:52:24.518Z,10.76
2019-03-15T15:55:26.719Z,10.63
2019-03-15T15:58:28.860Z,10.56
2019-03-15T16:01:31.236Z,10.51
2019-03-15T16:04:33.136Z,10.51
2019-03-15T16:07:35.278Z,10.43
2019-03-15T16:10:37.437Z,10.43
2019-03-15T16:13:39.630Z,10.36
2019-03-15T16:16:41.759Z,10.35
2019-03-15T16:19:43.853Z,10.28
2019-03-15T16:22:45.847Z,10.24
2019-03-15T16:25:47.803Z,10.22
2019-03-15T16:28:49.833Z,10.12
2019-03-15T16:31:51.702Z,10.04
2019-03-15T16:34:53.639Z,10.02
2019-03-15T16:37:56.850Z,9.95
2019-03-15T16:41:00.177Z,9.89
2019-03-15T16:44:02.182Z,9.81
2019-03-15T16:47:04.279Z,9.64
2019-03-15T16:50:09.260Z,9.60
2019-03-15T16:53:12.519Z,9.55
2019-03-15T16:56:14.607Z,9.51
2019-03-15T16:59:16.570Z,9.51
2019-03-15T17:02:19.003Z,9.50
2019-03-15T17:05:21.139Z,9.49
2019-03-15T17:08:23.346Z,9.44
2019-03-15T17:11:25.302Z,9.44
2019-03-15T17:14:27.637Z,9.34
2019-03-15T17:17:30.065Z,9.31
2019-03-15T17:20:33.094Z,9.24
2019-03-15T17:23:35.186Z,9.27
2019-03-15T17:26:40.445Z,9.28
2019-03-15T17:29:42.511Z,9.28
2019-03-15T17:32:44.515Z,9.29
2019-03-15T17:35:48.257Z,9.27
2019-03-15T17:38:50.503Z,9.26
2019-03-15T17:41:55.529Z,9.19
2019-03-15T17:44:57.483Z,9.13
2019-03-15T17:48:01.765Z,9.11
2019-03-15T17:51:03.754Z,9.05
2019-03-15T17:54:06.279Z,9.01
2019-03-15T17:57:08.248Z,8.99
2019-03-15T18:00:21.360Z,8.92
2019-03-15T18:03:23.842Z,8.87
2019-03-15T18:06:26.584Z,8.82
2019-03-15T18:09:29.195Z,8.80
2019-03-15T18:12:31.197Z,8.76
2019-03-15T18:15:34.419Z,8.77
2019-03-15T18:18:36.633Z,8.76
2019-03-15T18:21:39.693Z,8.77
2019-03-15T18:24:43.212Z,8.75
2019-03-15T18:27:45.959Z,8.73
2019-03-15T18:30:48.300Z,8.72
2019-03-15T18:33:50.327Z,8.68
2019-03-15T18:36:52.314Z,8.64
2019-03-15T18:39:56.148Z,8.56
2019-03-15T18:42:59.840Z,8.51
2019-03-15T18:46:06.634Z,8.47
2019-03-15T18:49:12.185Z,8.43
2019-03-15T18:52:19.786Z,8.39
2019-03-15T18:55:21.846Z,8.33
2019-03-15T18:58:25.012Z,8.30
2019-03-15T19:01:26.982Z,8.28
2019-03-15T19:04:29.259Z,8.24
2019-03-15T19:07:33.175Z,8.20
2019-03-15T19:10:38.458Z,8.19
2019-03-15T19:13:39.056Z,8.18
2019-03-15T19:16:42.125Z,8.21
2019-03-15T19:19:44.318Z,8.20
2019-03-15T19:22:47.398Z,8.24
2019-03-15T19:25:51.194Z,8.28
2019-03-15T19:28:53.437Z,8.31
2019-03-15T19:31:55.384Z,8.32
2019-03-15T19:35:00.458Z,8.36
2019-03-15T19:38:02.351Z,8.38
2019-03-15T19:41:06.835Z,8.39
2019-03-15T19:44:09.362Z,8.43
2019-03-15T19:47:12.581Z,8.48
2019-03-15T19:50:18.110Z,8.56
2019-03-15T19:53:21.211Z,8.63
2019-03-15T19:56:23.713Z,8.72
2019-03-15T19:59:27.126Z,8.81
2019-03-15T20:02:29.749Z,8.83
2019-03-15T20:05:33.830Z,8.80
2019-03-15T20:08:41.096Z,8.81
2019-03-15T20:11:45.824Z,8.82
2019-03-15T20:14:53.185Z,8.73
2019-03-15T20:17:55.529Z,8.70
2019-03-15T20:20:57.964Z,8.67
2019-03-15T20:24:00.093Z,8.56
2019-03-15T20:27:02.121Z,8.46
2019-03-15T20:30:22.935Z,8.31
2019-03-15T20:33:22.813Z,8.13
2019-03-15T20:36:27.142Z,7.98
2019-03-15T20:39:29.068Z,7.94
2019-03-15T20:42:33.990Z,7.93
2019-03-15T20:45:36.209Z,7.95
2019-03-15T20:48:38.103Z,7.94
2019-03-15T20:51:40.137Z,7.94
2019-03-15T20:54:43.264Z,7.93
2019-03-15T20:57:45.963Z,7.91
2019-03-15T21:00:49.530Z,7.86
2019-03-15T21:03:56.370Z,7.88
2019-03-15T21:06:56.795Z,7.87
2019-03-15T21:10:01.610Z,7.87
2019-03-15T21:13:03.851Z,7.85
2019-03-15T21:16:05.751Z,7.88
2019-03-15T21:19:07.710Z,7.89
2019-03-15T21:22:11.161Z,7.86
2019-03-15T21:25:14.715Z,7.78
2019-03-15T21:28:16.749Z,7.76
2019-03-15T21:31:18.718Z,7.74
2019-03-15T21:34:20.792Z,7.74
2019-03-15T21:37:23.082Z,7.75
2019-03-15T21:40:25.027Z,7.77
2019-03-15T21:43:26.958Z,7.76
2019-03-15T21:46:28.934Z,7.75
2019-03-15T21:49:30.831Z,7.73
2019-03-15T21:52:32.752Z,7.71
2019-03-15T21:55:34.713Z,7.73
2019-03-15T21:58:37.080Z,7.75
2019-03-15T22:01:39.063Z,7.79
2019-03-15T22:04:41.113Z,7.87
2019-03-15T22:07:43.021Z,7.93
2019-03-15T22:10:44.911Z,7.97
2019-03-15T22:13:46.885Z,7.97
2019-03-15T22:16:48.803Z,7.96
2019-03-15T22:19:50.727Z,7.95
2019-03-15T22:22:52.662Z,7.99
2019-03-15T22:25:54.578Z,8.03
2019-03-15T22:28:56.552Z,8.02
2019-03-15T22:31:58.467Z,8.01
2019-03-15T22:35:00.485Z,8.04
2019-03-15T22:38:02.384Z,8.07
2019-03-15T22:41:04.367Z,8.17
2019-03-15T22:44:06.331Z,8.30
2019-03-15T22:47:08.258Z,8.33
2019-03-15T22:50:11.292Z,8.32
2019-03-15T22:53:13.202Z,8.30
2019-03-15T22:56:15.192Z,8.28
2019-03-15T22:59:17.215Z,8.26
2019-03-15T23:02:19.114Z,8.28
2019-03-15T23:05:21.026Z,8.26
2019-03-15T23:08:22.961Z,8.27
2019-03-15T23:11:24.913Z,8.24
2019-03-15T23:14:26.908Z,8.21
2019-03-15T23:17:28.774Z,8.16
2019-03-15T23:20:30.705Z,8.10
2019-03-15T23:23:32.563Z,8.03
2019-03-15T23:26:34.563Z,7.98
2019-03-15T23:29:36.548Z,7.91
2019-03-15T23:32:39.992Z,7.91
2019-03-15T23:35:53.401Z,7.95
2019-03-15T23:38:45.807Z,7.95
2019-03-15T23:41:47.707Z,7.92
2019-03-15T23:44:49.700Z,7.91
2019-03-15T23:47:51.622Z,7.87
2019-03-15T23:50:53.596Z,7.89
2019-03-15T23:53:55.498Z,7.88
2019-03-15T23:56:57.468Z,7.85
2019-03-15T23:59:59.496Z,7.89
